Metar Aviation Weather Data KORD

54°F Temp
48°F Dewpoint
% Humidity
Temperature
8 MPH
13 KM/H
7 KTS
300°
West North
West

Wind Speed
Overcast
Conditions
Pressure 1000.4 (hPa) - 29.55 (in)
Visibility 10.0 (mi) - 16 (km)

Current Conditions
KORD
Metar :KORD 181251Z 30007KT 10SM OVC013 12/09 A2955 RMK AO2 RAB01E12 SLP004 P0000 T01170094
Thu 18th April 07:51 am

  Metar Aviation API Data Provided by https://www.checkwx.com/ PHP scripts by weather34.com ©2019